createdAt,value
2018-11-07T00:00:58.012Z,89.94
2018-11-07T00:03:27.538Z,89.85
2018-11-07T00:05:56.972Z,89.60
2018-11-07T00:08:26.656Z,89.50
2018-11-07T00:10:57.153Z,88.95
2018-11-07T00:13:26.541Z,88.26
2018-11-07T00:15:55.879Z,88.42
2018-11-07T00:18:25.504Z,88.43
2018-11-07T00:20:55.062Z,87.92
2018-11-07T00:23:25.541Z,87.41
2018-11-07T00:25:55.170Z,87.57
2018-11-07T00:28:28.396Z,87.49
2018-11-07T00:30:57.826Z,87.58
2018-11-07T00:33:27.447Z,87.22
2018-11-07T00:35:57.157Z,87.48
2018-11-07T00:38:29.388Z,87.20
2018-11-07T00:40:59.404Z,86.97
2018-11-07T00:43:28.832Z,87.22
2018-11-07T00:45:59.376Z,86.44
2018-11-07T00:48:28.978Z,86.25
2018-11-07T00:50:58.719Z,85.82
2018-11-07T00:53:29.128Z,85.36
2018-11-07T00:55:58.682Z,84.90
2018-11-07T00:58:28.564Z,84.82
2018-11-07T01:00:58.662Z,84.77
2018-11-07T01:03:28.367Z,84.79
2018-11-07T01:05:57.906Z,84.63
2018-11-07T01:08:27.355Z,84.86
2018-11-07T01:10:56.850Z,84.68
2018-11-07T01:13:26.768Z,83.94
2018-11-07T01:15:56.818Z,84.21
2018-11-07T01:18:27.033Z,84.43
2018-11-07T01:20:56.753Z,84.24
2018-11-07T01:23:26.351Z,83.66
2018-11-07T01:25:55.834Z,83.60
2018-11-07T01:28:25.537Z,83.76
2018-11-07T01:30:55.316Z,83.86
2018-11-07T01:33:26.936Z,83.57
2018-11-07T01:35:56.649Z,83.54
2018-11-07T01:38:26.171Z,83.66
2018-11-07T01:40:55.757Z,83.88
2018-11-07T01:43:25.221Z,84.00
2018-11-07T01:45:55.234Z,83.88
2018-11-07T01:48:24.742Z,84.26
2018-11-07T01:50:55.356Z,85.34
2018-11-07T01:53:25.680Z,85.18
2018-11-07T01:55:55.406Z,84.84
2018-11-07T01:58:26.272Z,85.33
2018-11-07T02:00:57.908Z,85.31
2018-11-07T02:03:28.379Z,85.61
2018-11-07T02:05:57.779Z,85.64
2018-11-07T02:08:30.469Z,85.77
2018-11-07T02:11:00.657Z,86.02
2018-11-07T02:13:30.360Z,86.17
2018-11-07T02:15:59.865Z,85.93
2018-11-07T02:18:29.370Z,86.01
2018-11-07T02:20:59.653Z,86.07
2018-11-07T02:23:29.049Z,86.44
2018-11-07T02:25:58.566Z,86.56
2018-11-07T02:28:28.038Z,86.64
2018-11-07T02:30:58.704Z,86.90
2018-11-07T02:33:35.036Z,86.96
2018-11-07T02:36:05.232Z,87.14
2018-11-07T02:38:34.730Z,87.80
2018-11-07T02:41:04.681Z,88.20
2018-11-07T02:43:34.186Z,88.71
2018-11-07T02:46:04.060Z,88.85
2018-11-07T02:48:34.388Z,89.10
2018-11-07T02:51:04.350Z,89.43
2018-11-07T02:53:34.135Z,89.34
2018-11-07T02:56:03.659Z,89.76
2018-11-07T02:58:33.160Z,89.74
2018-11-07T03:01:02.746Z,89.89
2018-11-07T03:03:32.237Z,90.01
2018-11-07T03:06:01.742Z,89.81
2018-11-07T03:08:32.681Z,89.84
2018-11-07T03:11:03.655Z,89.92
2018-11-07T03:13:33.496Z,89.67
2018-11-07T03:16:03.098Z,89.41
2018-11-07T03:18:32.575Z,89.63
2018-11-07T03:21:02.020Z,89.82
2018-11-07T03:23:31.320Z,89.69
2018-11-07T03:26:00.717Z,90.10
2018-11-07T03:28:30.166Z,90.06
2018-11-07T03:30:59.811Z,90.24
2018-11-07T03:33:29.351Z,90.58
2018-11-07T03:35:59.040Z,90.41
2018-11-07T03:38:29.080Z,90.54
2018-11-07T03:40:59.087Z,90.30
2018-11-07T03:43:29.692Z,90.14
2018-11-07T03:46:00.520Z,89.84
2018-11-07T03:48:32.119Z,89.92
2018-11-07T03:51:02.541Z,89.35
2018-11-07T03:53:32.177Z,88.60
2018-11-07T03:56:03.818Z,88.17
2018-11-07T03:58:33.697Z,88.21
2018-11-07T04:01:03.575Z,88.44
2018-11-07T04:03:33.225Z,88.63
2018-11-07T04:06:03.851Z,88.79
2018-11-07T04:08:33.563Z,88.63
2018-11-07T04:11:03.608Z,88.82
2018-11-07T04:13:33.608Z,88.83
2018-11-07T04:16:03.928Z,88.50
2018-11-07T04:18:33.685Z,88.57
2018-11-07T04:21:05.541Z,88.51
2018-11-07T04:23:35.104Z,88.79
2018-11-07T04:26:05.354Z,88.44
2018-11-07T04:28:34.980Z,88.59
2018-11-07T04:31:07.057Z,88.45
2018-11-07T04:33:36.459Z,87.70
2018-11-07T04:36:06.975Z,87.82
2018-11-07T04:38:36.538Z,88.10
2018-11-07T04:41:07.384Z,88.36
2018-11-07T04:43:37.191Z,88.27
2018-11-07T04:46:08.417Z,88.59
2018-11-07T04:48:38.732Z,88.49
2018-11-07T04:51:08.989Z,88.84
2018-11-07T04:53:39.206Z,89.09
2018-11-07T04:56:08.810Z,89.26
2018-11-07T04:58:38.673Z,89.56
2018-11-07T05:01:08.534Z,89.53
2018-11-07T05:03:40.292Z,89.81
2018-11-07T05:06:10.618Z,89.92
2018-11-07T05:08:40.487Z,90.22
2018-11-07T05:11:11.242Z,89.98
2018-11-07T05:13:41.565Z,90.02
2018-11-07T05:16:11.582Z,90.31
2018-11-07T05:18:40.959Z,90.88
2018-11-07T05:21:10.465Z,91.26
2018-11-07T05:23:40.332Z,91.16
2018-11-07T05:26:09.862Z,91.21
2018-11-07T05:28:39.320Z,91.58
2018-11-07T05:31:08.812Z,91.86
2018-11-07T05:33:38.325Z,91.35
2018-11-07T05:36:09.147Z,91.00
2018-11-07T05:38:39.051Z,91.20
2018-11-07T05:41:09.662Z,91.61
2018-11-07T05:43:39.258Z,92.03
2018-11-07T05:46:15.684Z,92.23
2018-11-07T05:48:45.287Z,92.11
2018-11-07T05:51:15.086Z,92.39
2018-11-07T05:53:45.543Z,92.99
2018-11-07T05:56:15.372Z,92.78
2018-11-07T05:58:45.374Z,92.58
2018-11-07T06:01:14.770Z,92.70
2018-11-07T06:03:45.094Z,92.24
2018-11-07T06:06:14.460Z,92.35
2018-11-07T06:08:44.007Z,92.35
2018-11-07T06:11:14.558Z,91.94
2018-11-07T06:13:44.408Z,91.59
2018-11-07T06:16:15.419Z,91.63
2018-11-07T06:18:45.285Z,91.81
2018-11-07T06:21:17.331Z,91.82
2018-11-07T06:23:47.086Z,91.35
2018-11-07T06:26:17.229Z,90.99
2018-11-07T06:28:47.937Z,91.27
2018-11-07T06:31:18.768Z,91.60
2018-11-07T06:33:48.491Z,91.07
2018-11-07T06:36:18.492Z,90.91
2018-11-07T06:38:48.237Z,90.41
2018-11-07T06:41:18.281Z,90.86
2018-11-07T06:43:48.107Z,90.65
2018-11-07T06:46:17.731Z,90.66
2018-11-07T06:48:47.723Z,89.95
2018-11-07T06:51:18.275Z,90.16
2018-11-07T06:53:47.800Z,89.77
2018-11-07T06:56:18.419Z,89.45
2018-11-07T06:58:48.400Z,89.69
2018-11-07T07:01:20.569Z,89.48
2018-11-07T07:03:51.960Z,89.30
2018-11-07T07:06:22.165Z,89.46
2018-11-07T07:08:51.927Z,89.42
2018-11-07T07:11:21.841Z,89.23
2018-11-07T07:14:04.419Z,88.90
2018-11-07T07:16:34.021Z,88.30
2018-11-07T07:19:03.442Z,88.24
2018-11-07T07:21:33.224Z,88.11
2018-11-07T07:24:03.434Z,87.87
2018-11-07T07:26:33.458Z,87.82
2018-11-07T07:29:03.578Z,87.84
2018-11-07T07:31:34.539Z,88.07
2018-11-07T07:34:07.715Z,88.05
2018-11-07T07:36:38.128Z,88.28
2018-11-07T07:39:09.362Z,88.27
2018-11-07T07:41:39.946Z,88.53
2018-11-07T07:44:09.637Z,87.98
2018-11-07T07:46:39.226Z,87.81
2018-11-07T07:49:08.810Z,87.57
2018-11-07T07:51:38.559Z,87.76
2018-11-07T07:54:08.251Z,87.24
2018-11-07T07:56:38.008Z,87.06
2018-11-07T07:59:08.924Z,86.33
2018-11-07T08:01:40.044Z,85.77
2018-11-07T08:04:09.601Z,85.26
2018-11-07T08:06:39.360Z,84.78
2018-11-07T08:09:13.134Z,83.84
2018-11-07T08:11:42.673Z,84.14
2018-11-07T08:14:12.018Z,83.76
2018-11-07T08:16:41.432Z,83.40
2018-11-07T08:19:11.100Z,83.35
2018-11-07T08:21:40.723Z,82.66
2018-11-07T08:24:10.096Z,82.78
2018-11-07T08:26:39.545Z,82.40
2018-11-07T08:29:09.332Z,82.49
2018-11-07T08:31:38.959Z,82.03
2018-11-07T08:34:08.480Z,81.30
2018-11-07T08:36:37.996Z,81.04
2018-11-07T08:39:11.308Z,80.83
2018-11-07T08:41:40.862Z,80.03
2018-11-07T08:44:10.380Z,79.80
2018-11-07T08:46:39.735Z,79.51
2018-11-07T08:49:09.329Z,78.76
2018-11-07T08:51:39.040Z,79.13
2018-11-07T08:54:08.740Z,78.35
2018-11-07T08:56:38.416Z,78.25
2018-11-07T08:59:08.415Z,76.84
2018-11-07T09:04:08.084Z,77.02
2018-11-07T09:06:37.705Z,76.29
2018-11-07T09:09:10.156Z,76.09
2018-11-07T09:11:40.200Z,75.37
2018-11-07T09:14:10.474Z,74.89
2018-11-07T09:16:40.242Z,74.53
2018-11-07T09:19:09.963Z,73.75
2018-11-07T09:21:39.851Z,73.48
2018-11-07T09:24:09.519Z,72.51
2018-11-07T09:26:39.011Z,72.13
2018-11-07T09:29:08.777Z,72.22
2018-11-07T09:31:38.208Z,71.18
2018-11-07T09:34:08.003Z,71.41
2018-11-07T09:36:37.609Z,71.45
2018-11-07T09:39:09.155Z,70.91
2018-11-07T09:41:39.294Z,70.29
2018-11-07T09:44:08.908Z,69.75
2018-11-07T09:46:38.691Z,69.52
2018-11-07T09:49:09.230Z,69.05
2018-11-07T09:51:39.057Z,68.43
2018-11-07T09:54:08.762Z,68.40
2018-11-07T09:56:38.826Z,67.18
2018-11-07T09:59:08.799Z,67.30
2018-11-07T10:01:38.507Z,67.35
2018-11-07T10:04:08.695Z,66.59
2018-11-07T10:06:38.387Z,66.59
2018-11-07T10:09:10.859Z,66.36
2018-11-07T10:11:40.494Z,67.02
2018-11-07T10:14:10.101Z,66.77
2018-11-07T10:16:39.830Z,65.75
2018-11-07T10:19:09.537Z,65.41
2018-11-07T10:21:41.815Z,64.66
2018-11-07T10:24:11.503Z,64.12
2018-11-07T10:26:42.990Z,64.34
2018-11-07T10:29:13.020Z,63.32
2018-11-07T10:31:42.488Z,63.20
2018-11-07T10:34:12.592Z,62.90
2018-11-07T10:36:42.001Z,63.63
2018-11-07T10:39:11.932Z,61.41
2018-11-07T10:41:41.956Z,61.94
2018-11-07T10:44:11.393Z,61.69
2018-11-07T10:46:41.550Z,61.66
2018-11-07T10:49:11.059Z,61.41
2018-11-07T10:51:41.390Z,61.28
2018-11-07T10:54:11.640Z,61.12
2018-11-07T10:56:41.129Z,61.80
2018-11-07T10:59:11.341Z,61.64
2018-11-07T11:01:46.217Z,60.82
2018-11-07T11:04:15.669Z,61.02
2018-11-07T11:06:45.075Z,61.30
2018-11-07T11:09:14.517Z,60.76
2018-11-07T11:11:44.020Z,60.33
2018-11-07T11:14:13.703Z,60.92
2018-11-07T11:16:43.250Z,59.65
2018-11-07T11:19:12.751Z,60.58
2018-11-07T11:21:42.493Z,59.11
2018-11-07T11:24:12.780Z,58.64
2018-11-07T11:26:42.207Z,59.64
2018-11-07T11:29:11.790Z,59.09
2018-11-07T11:31:41.421Z,58.21
2018-11-07T11:34:11.136Z,58.27
2018-11-07T11:36:41.044Z,57.94
2018-11-07T11:39:12.215Z,57.96
2018-11-07T11:41:42.383Z,57.49
2018-11-07T11:44:11.831Z,58.03
2018-11-07T11:46:41.294Z,56.99
2018-11-07T11:49:10.929Z,57.50
2018-11-07T11:51:40.502Z,57.76
2018-11-07T11:54:09.935Z,55.70
2018-11-07T11:56:39.419Z,54.40
2018-11-07T11:59:09.272Z,52.56
2018-11-07T12:01:38.785Z,50.85
2018-11-07T12:04:08.577Z,49.67
2018-11-07T12:06:38.623Z,49.62
2018-11-07T12:09:10.259Z,49.65
2018-11-07T12:11:42.929Z,50.69
2018-11-07T12:14:12.342Z,52.57
2018-11-07T12:16:42.897Z,52.92
2018-11-07T12:19:13.096Z,54.26
2018-11-07T12:21:43.915Z,54.48
2018-11-07T12:24:13.550Z,54.10
2018-11-07T12:26:43.286Z,55.12
2018-11-07T12:29:12.669Z,52.53
2018-11-07T12:31:42.883Z,50.80
2018-11-07T12:34:12.838Z,50.22
2018-11-07T12:36:42.198Z,48.67
2018-11-07T12:39:11.583Z,47.89
2018-11-07T12:41:41.074Z,47.89
2018-11-07T12:44:10.572Z,46.48
2018-11-07T12:46:40.024Z,47.11
2018-11-07T12:49:10.401Z,46.97
2018-11-07T12:51:39.960Z,46.62
2018-11-07T12:54:09.452Z,46.83
2018-11-07T12:56:38.986Z,47.87
2018-11-07T12:59:11.031Z,48.13
2018-11-07T13:01:40.614Z,46.75
2018-11-07T13:04:10.179Z,48.47
2018-11-07T13:06:39.648Z,47.60
2018-11-07T13:09:11.563Z,47.20
2018-11-07T13:11:41.890Z,48.20
2018-11-07T13:14:11.627Z,47.87
2018-11-07T13:16:42.193Z,48.79
2018-11-07T13:19:12.202Z,49.51
2018-11-07T13:21:41.874Z,49.83
2018-11-07T13:24:11.489Z,50.53
2018-11-07T13:26:41.223Z,50.31
2018-11-07T13:29:10.580Z,51.04
2018-11-07T13:31:40.106Z,51.28
2018-11-07T13:34:09.901Z,50.62
2018-11-07T13:36:39.478Z,51.29
2018-11-07T13:39:13.661Z,51.49
2018-11-07T13:41:43.039Z,51.87
2018-11-07T13:44:12.603Z,52.25
2018-11-07T13:46:43.174Z,52.89
2018-11-07T13:49:12.678Z,52.99
2018-11-07T13:51:42.753Z,53.45
2018-11-07T13:54:13.124Z,53.83
2018-11-07T13:56:42.816Z,53.50
2018-11-07T13:59:12.373Z,52.93
2018-11-07T14:01:41.892Z,53.54
2018-11-07T14:04:11.725Z,53.44
2018-11-07T14:06:41.164Z,53.72
2018-11-07T14:09:12.467Z,53.43
2018-11-07T14:11:43.109Z,53.70
2018-11-07T14:14:12.575Z,53.46
2018-11-07T14:16:42.347Z,53.73
2018-11-07T14:19:12.067Z,54.58
2018-11-07T14:21:42.044Z,54.33
2018-11-07T14:24:12.617Z,55.15
2018-11-07T14:26:42.444Z,54.12
2018-11-07T14:29:13.362Z,53.64
2018-11-07T14:31:42.913Z,54.11
2018-11-07T14:34:13.015Z,54.54
2018-11-07T14:36:43.623Z,53.81
2018-11-07T14:39:13.519Z,53.85
2018-11-07T14:41:43.963Z,53.50
2018-11-07T14:44:13.574Z,53.69
2018-11-07T14:46:43.451Z,53.12
2018-11-07T14:49:13.496Z,53.38
2018-11-07T14:51:44.036Z,53.41
2018-11-07T14:54:13.705Z,53.09
2018-11-07T14:56:43.954Z,53.36
2018-11-07T14:59:14.569Z,54.52
2018-11-07T15:01:44.123Z,53.75
2018-11-07T15:04:16.583Z,53.48
2018-11-07T15:06:47.671Z,54.27
2018-11-07T15:09:17.361Z,55.16
2018-11-07T15:11:47.089Z,55.46
2018-11-07T15:14:16.716Z,56.25
2018-11-07T15:16:46.806Z,57.37
2018-11-07T15:19:16.586Z,59.25
2018-11-07T15:21:47.528Z,59.44
2018-11-07T15:24:17.281Z,63.60
2018-11-07T15:26:47.467Z,65.14
2018-11-07T15:29:17.710Z,66.52
2018-11-07T15:31:47.495Z,68.89
2018-11-07T15:34:17.537Z,70.83
2018-11-07T15:36:47.344Z,75.54
2018-11-07T15:39:18.162Z,79.54
2018-11-07T15:41:48.274Z,84.77
2018-11-07T15:44:17.918Z,85.64
2018-11-07T15:46:47.927Z,86.80
2018-11-07T15:49:17.693Z,87.37
2018-11-07T15:51:47.639Z,91.14
2018-11-07T15:54:17.769Z,93.18
2018-11-07T15:56:50.133Z,94.39
2018-11-07T15:59:19.891Z,94.96
2018-11-07T16:01:49.621Z,93.89
2018-11-07T16:04:19.283Z,94.53
2018-11-07T16:06:49.052Z,92.17
2018-11-07T16:09:19.272Z,93.37
2018-11-07T16:11:48.930Z,92.31
2018-11-07T16:14:18.761Z,92.04
2018-11-07T16:16:48.243Z,90.77
2018-11-07T16:19:17.869Z,87.43
2018-11-07T16:21:48.056Z,84.80
2018-11-07T16:24:18.665Z,83.05
2018-11-07T16:26:48.391Z,81.45
2018-11-07T16:29:19.505Z,81.69
2018-11-07T16:31:49.218Z,82.99
2018-11-07T16:34:19.278Z,79.52
2018-11-07T16:36:49.190Z,77.62
2018-11-07T16:39:19.915Z,80.00
2018-11-07T16:41:49.917Z,78.90
2018-11-07T16:44:19.734Z,79.10
2018-11-07T16:46:50.248Z,79.01
2018-11-07T16:49:20.353Z,79.14
2018-11-07T16:51:50.851Z,79.65
2018-11-07T16:54:22.280Z,80.18
2018-11-07T16:56:51.741Z,80.75
2018-11-07T16:59:21.614Z,80.24
2018-11-07T17:01:51.934Z,80.94
2018-11-07T17:04:21.624Z,79.66
2018-11-07T17:06:51.832Z,80.39
2018-11-07T17:09:23.426Z,79.17
2018-11-07T17:11:53.477Z,78.95
2018-11-07T17:14:23.162Z,79.21
2018-11-07T17:16:52.876Z,80.47
2018-11-07T17:19:23.463Z,80.66
2018-11-07T17:21:54.024Z,80.48
2018-11-07T17:24:24.024Z,80.69
2018-11-07T17:26:54.222Z,81.26
2018-11-07T17:29:24.268Z,79.84
2018-11-07T17:31:58.783Z,79.55
2018-11-07T17:34:28.552Z,77.35
2018-11-07T17:36:58.173Z,76.83
2018-11-07T17:39:27.658Z,76.59
2018-11-07T17:41:57.215Z,76.76
2018-11-07T17:44:26.665Z,76.96
2018-11-07T17:46:56.539Z,75.06
2018-11-07T17:49:25.997Z,73.93
2018-11-07T17:51:55.674Z,73.77
2018-11-07T17:54:25.329Z,72.69
2018-11-07T17:56:55.811Z,74.03
2018-11-07T17:59:25.584Z,73.28
2018-11-07T18:01:55.389Z,74.43
2018-11-07T18:04:24.975Z,75.13
2018-11-07T18:06:54.729Z,74.40
2018-11-07T18:09:24.257Z,73.93
2018-11-07T18:11:55.123Z,75.28
2018-11-07T18:14:24.628Z,73.58
2018-11-07T18:16:54.306Z,74.31
2018-11-07T18:19:24.086Z,75.50
2018-11-07T18:21:53.621Z,74.16
2018-11-07T18:24:23.298Z,74.83
2018-11-07T18:26:52.918Z,76.09
2018-11-07T18:29:22.499Z,76.40
2018-11-07T18:31:52.061Z,75.87
2018-11-07T18:34:21.585Z,76.21
2018-11-07T18:36:51.364Z,77.21
2018-11-07T18:39:20.840Z,76.18
2018-11-07T18:41:50.373Z,76.58
2018-11-07T18:44:20.083Z,76.50
2018-11-07T18:46:49.653Z,77.08
2018-11-07T18:49:19.394Z,77.83
2018-11-07T18:51:48.902Z,78.16
2018-11-07T18:54:18.586Z,79.38
2018-11-07T18:56:48.311Z,78.35
2018-11-07T18:59:18.305Z,78.62
2018-11-07T19:01:48.496Z,78.33
2018-11-07T19:04:18.169Z,78.78
2018-11-07T19:06:48.016Z,78.43
2018-11-07T19:09:18.710Z,79.19
2018-11-07T19:11:48.367Z,79.01
2018-11-07T19:14:18.176Z,78.84
2018-11-07T19:16:47.660Z,78.78
2018-11-07T19:19:17.488Z,78.80
2018-11-07T19:21:47.141Z,79.33
2018-11-07T19:24:17.691Z,79.41
2018-11-07T19:26:49.917Z,79.12
2018-11-07T19:29:20.574Z,78.48
2018-11-07T19:31:50.339Z,78.18
2018-11-07T19:34:22.207Z,78.66
2018-11-07T19:36:53.043Z,79.55
2018-11-07T19:39:24.421Z,79.39
2018-11-07T19:41:54.775Z,79.14
2018-11-07T19:44:24.267Z,79.34
2018-11-07T19:46:53.751Z,79.45
2018-11-07T19:49:23.145Z,79.60
2018-11-07T19:51:52.507Z,79.44
2018-11-07T19:54:22.097Z,80.03
2018-11-07T19:56:51.531Z,80.12
2018-11-07T19:59:21.044Z,79.94
2018-11-07T20:01:50.449Z,80.24
2018-11-07T20:04:20.349Z,80.98
2018-11-07T20:06:51.217Z,80.48
2018-11-07T20:09:21.009Z,80.45
2018-11-07T20:11:50.599Z,80.62
2018-11-07T20:14:21.311Z,80.88
2018-11-07T20:16:50.714Z,80.33
2018-11-07T20:19:20.903Z,80.61
2018-11-07T20:21:51.294Z,81.04
2018-11-07T20:24:21.428Z,81.23
2018-11-07T20:26:51.103Z,80.87
2018-11-07T20:29:21.988Z,80.52
2018-11-07T20:31:51.766Z,81.13
2018-11-07T20:34:22.465Z,80.80
2018-11-07T20:36:51.974Z,80.46
2018-11-07T20:39:22.791Z,81.29
2018-11-07T20:41:52.429Z,80.81
2018-11-07T20:44:22.693Z,80.58
2018-11-07T20:46:52.400Z,80.56
2018-11-07T20:49:22.372Z,80.65
2018-11-07T20:51:51.942Z,80.84
2018-11-07T20:54:21.859Z,80.47
2018-11-07T20:56:53.470Z,81.14
2018-11-07T20:59:24.823Z,80.80
2018-11-07T21:01:56.369Z,80.92
2018-11-07T21:04:29.341Z,80.79
2018-11-07T21:07:01.388Z,81.80
2018-11-07T21:09:32.358Z,81.83
2018-11-07T21:12:03.041Z,81.03
2018-11-07T21:14:34.665Z,80.81
2018-11-07T21:17:07.679Z,80.84
2018-11-07T21:19:38.922Z,81.27
2018-11-07T21:22:12.431Z,81.17
2018-11-07T21:24:42.223Z,81.01
2018-11-07T21:27:11.774Z,80.74
2018-11-07T21:29:41.483Z,80.96
2018-11-07T21:32:11.183Z,80.63
2018-11-07T21:34:40.892Z,81.52
2018-11-07T21:37:10.437Z,81.48
2018-11-07T21:39:39.952Z,81.61
2018-11-07T21:42:09.605Z,81.95
2018-11-07T21:44:39.164Z,82.33
2018-11-07T21:47:09.020Z,81.54
2018-11-07T21:49:38.760Z,81.80
2018-11-07T21:52:09.086Z,81.94
2018-11-07T21:54:38.776Z,82.58
2018-11-07T21:57:08.586Z,82.48
2018-11-07T21:59:38.307Z,82.52
2018-11-07T22:02:08.619Z,83.11
2018-11-07T22:04:38.460Z,83.10
2018-11-07T22:07:08.727Z,83.19
2018-11-07T22:09:39.301Z,83.00
2018-11-07T22:12:08.931Z,82.97
2018-11-07T22:14:38.524Z,83.33
2018-11-07T22:17:08.928Z,83.60
2018-11-07T22:19:39.738Z,83.13
2018-11-07T22:22:10.365Z,84.03
2018-11-07T22:24:41.549Z,83.87
2018-11-07T22:27:13.234Z,83.81
2018-11-07T22:29:43.042Z,83.15
2018-11-07T22:32:12.654Z,83.65
2018-11-07T22:34:42.576Z,84.17
2018-11-07T22:37:12.487Z,84.43
2018-11-07T22:39:42.363Z,83.52
2018-11-07T22:42:12.253Z,83.69
2018-11-07T22:44:41.806Z,84.02
2018-11-07T22:47:11.630Z,83.77
2018-11-07T22:49:41.471Z,83.27
2018-11-07T22:52:11.081Z,83.33
2018-11-07T22:54:40.509Z,83.16
2018-11-07T22:57:10.198Z,83.02
2018-11-07T22:59:40.598Z,83.40
2018-11-07T23:02:10.176Z,83.27
2018-11-07T23:04:39.646Z,83.14
2018-11-07T23:07:09.200Z,83.74
2018-11-07T23:09:38.925Z,83.43
2018-11-07T23:12:09.148Z,83.27
2018-11-07T23:14:39.112Z,84.19
2018-11-07T23:17:08.687Z,83.72
2018-11-07T23:19:38.603Z,83.70
2018-11-07T23:22:08.350Z,83.80
2018-11-07T23:24:39.022Z,83.94
2018-11-07T23:27:09.145Z,83.88
2018-11-07T23:29:38.791Z,84.06
2018-11-07T23:32:09.763Z,84.23
2018-11-07T23:34:40.221Z,84.11
2018-11-07T23:37:10.133Z,83.79
2018-11-07T23:39:39.950Z,83.92
2018-11-07T23:42:12.488Z,84.46
2018-11-07T23:44:42.030Z,84.18
2018-11-07T23:47:13.739Z,84.07
2018-11-07T23:49:43.294Z,84.31
2018-11-07T23:52:17.104Z,83.73
2018-11-07T23:54:46.621Z,83.37
2018-11-07T23:57:16.160Z,83.00
2018-11-07T23:59:47.217Z,83.38
